• Join FlightAware (Why Join?)
  • Login
  • US Flag 
12:12AM EST


 

Airport Tracker/Info


-or-


 

Live Flight TrackerFlight Track Log ✈ N15712 ✈ 20-May-2012 ✈ KORD - KIAH

Flight Track Log - Related Links

Times and Time Zones

All times are in EDT time to prevent confusion due to time zone crossing. See the N15712 flight status page for this flight to view local times or setup timezone preferences in your user account.

Time Position Orientation Groundspeed Altitude Reporting Facility
EDT Latitude Longitude Course Direction KTS MPH feet Rate Location/Type
11:58PM 41.9255 -87.9137 344° North  Level FlightAware Approximate
11:58PM 41.9333 -87.9167 188° South 181 208 2,100  Level Chicago TRACON
12:03AM 41.5794 -87.9814 192° South 299 344 15,100 2,280 Climbing Chicago Center
12:04AM 41.4964 -88.0053 192° South 299 344 16,000 1,440 Climbing Chicago Center
12:05AM 41.4050 -88.0322 195° South 316 364 18,000 2,160 Climbing Chicago Center
12:06AM 41.2969 -88.0703 193° South 362 417 20,400 1,920 Climbing Chicago Center
12:07AM 41.1867 -88.1028 194° South 391 450 21,900 1,440 Climbing Chicago Center
12:08AM 41.0747 -88.1408 205° Southwest 410 472 23,300 1,620 Climbing Chicago Center
12:09AM 40.9647 -88.2089 208° Southwest 422 486 25,200 1,800 Climbing Chicago Center
12:10AM 40.8572 -88.2847 208° Southwest 435 501 26,900 1,860 Climbing Chicago Center
12:11AM 40.7472 -88.3606 207° Southwest 445 512 29,000 1,740 Climbing Chicago Center
12:12AM 40.6394 -88.4333 209° Southwest 445 512 30,400 1,500 Climbing Chicago Center
12:13AM 40.5317 -88.5114 207° Southwest 445 512 32,100 1,680 Climbing Chicago Center
12:15AM 40.2972 -88.6656 208° Southwest 460 529 35,700 1,620 Climbing Kansas City Center
12:16AM 40.1903 -88.7394 207° Southwest 448 516 37,100 1,140 Climbing Kansas City Center
12:17AM 40.0833 -88.8108 202° Southwest 437 503 38,000 420 Climbing Kansas City Center
12:18AM 39.9717 -88.8711 202° Southwest 437 503 38,000  Level Kansas City Center
12:19AM 39.8639 -88.9283 201° Southwest 432 497 38,000  Level Kansas City Center
12:20AM 39.7539 -88.9828 202° Southwest 426 490 38,000  Level Kansas City Center
12:21AM 39.6458 -89.0397 202° Southwest 426 490 38,000  Level Kansas City Center
12:22AM 39.5381 -89.0964 202° Southwest 426 490 38,000  Level Kansas City Center
12:23AM 39.4322 -89.1528 204° Southwest 426 490 38,000  Level Kansas City Center
12:24AM 39.3244 -89.2144 201° Southwest 426 490 38,000  Level Kansas City Center
12:25AM 39.2142 -89.2681 202° Southwest 432 497 38,000  Level Kansas City Center
12:26AM 39.1081 -89.3239 202° Southwest 421 484 38,000  Level Kansas City Center
12:27AM 38.9961 -89.3828 202° Southwest 427 491 38,000  Level Kansas City Center
12:28AM 38.8858 -89.4411 202° Southwest 427 491 38,000  Level Kansas City Center
12:29AM 38.7778 -89.4964 201° Southwest 427 491 38,000  Level Kansas City Center
12:30AM 38.6653 -89.5519 201° Southwest 427 491 38,000  Level Kansas City Center
12:31AM 38.5531 -89.6075 202° Southwest 432 497 38,000  Level Kansas City Center
12:32AM 38.4508 -89.6592 203° Southwest 437 503 38,000  Level Kansas City Center
12:33AM 38.3261 -89.7256 202° Southwest 448 516 38,000  Level Kansas City Center
12:34AM 38.2239 -89.7772 202° Southwest 442 509 38,000  Level Kansas City Center
12:35AM 38.1014 -89.8403 202° Southwest 442 509 38,000  Level Kansas City Center
12:36AM 38.0011 -89.8914 203° Southwest 442 509 38,000  Level Kansas City Center
12:38AM 37.8167 -89.9894 202° Southwest 423 487 38,000  Level Memphis Center
12:39AM 37.7022 -90.0475 200° South 428 493 38,000  Level Memphis Center
12:40AM 37.5900 -90.1003 202° Southwest 433 498 38,000  Level Memphis Center
12:41AM 37.4756 -90.1583 201° Southwest 438 504 38,000  Level Memphis Center
12:42AM 37.3631 -90.2133 202° Southwest 438 504 38,000  Level Memphis Center
12:43AM 37.2506 -90.2708 201° Southwest 438 504 38,000  Level Memphis Center
12:44AM 37.1361 -90.3256 200° South 438 504 38,000  Level Memphis Center
12:45AM 37.0236 -90.3778 202° Southwest 433 498 38,000  Level Memphis Center
12:46AM 36.9111 -90.4347 201° Southwest 433 498 38,000  Level Memphis Center
12:47AM 36.7964 -90.4892 202° Southwest 433 498 38,000  Level Memphis Center
12:48AM 36.6714 -90.5508 200° South 433 498 38,000  Level Memphis Center
12:49AM 36.5567 -90.6022 201° Southwest 433 498 38,000  Level Memphis Center
12:50AM 36.4458 -90.6561 201° Southwest 433 498 38,000  Level Memphis Center
12:51AM 36.3333 -90.7100 201° Southwest 433 498 38,000  Level Memphis Center
12:52AM 36.2183 -90.7633 202° Southwest 433 498 38,000  Level Memphis Center
12:53AM 36.1056 -90.8194 201° Southwest 433 498 38,000  Level Memphis Center
12:54AM 35.9908 -90.8728 201° Southwest 438 504 38,000  Level Memphis Center
12:55AM 35.8781 -90.9258 200° South 438 504 38,000  Level Memphis Center
12:56AM 35.7631 -90.9786 201° Southwest 438 504 38,000  Level Memphis Center
12:57AM 35.6522 -91.0314 201° Southwest 438 504 38,000  Level Memphis Center
12:58AM 35.5372 -91.0867 201° Southwest 437 503 38,000  Level Memphis Center
12:59AM 35.4222 -91.1417 200° South 437 503 38,000  Level Memphis Center
01:00AM 35.3072 -91.1917 200° South 437 503 38,000  Level Memphis Center
01:01AM 35.1900 -91.2439 203° Southwest 444 511 38,000  Level Memphis Center
01:02AM 35.0769 -91.3036 200° South 444 511 38,000  Level Memphis Center
01:03AM 34.9597 -91.3556 200° South 449 517 38,000  Level Memphis Center
01:04AM 34.8528 -91.4022 202° Southwest 454 522 38,000  Level Memphis Center
01:05AM 34.7356 -91.4589 200° South 454 522 38,000  Level Memphis Center
01:06AM 34.6181 -91.5106 200° South 449 517 38,000  Level Memphis Center
01:07AM 34.4967 -91.5642 202° Southwest 454 522 38,000  Level Memphis Center
01:08AM 34.3814 -91.6206 200° South 454 522 38,000  Level Memphis Center
01:09AM 34.2578 -91.6739 200° South 461 531 38,000  Level Memphis Center
01:10AM 34.1444 -91.7250 200° South 452 520 38,000  Level Memphis Center
01:12AM 33.9297 -91.8217 200° South 434 499 38,000  Level Fort Worth Center
01:13AM 33.8092 -91.8742 201° Southwest 452 520 38,000  Level Fort Worth Center
01:14AM 33.6925 -91.9267 201° Southwest 463 533 38,000  Level Fort Worth Center
01:15AM 33.5717 -91.9814 200° South 463 533 38,000  Level Fort Worth Center
01:16AM 33.4531 -92.0336 203° Southwest 463 533 38,000  Level Fort Worth Center
01:17AM 33.3364 -92.0931 218° Southwest 463 533 38,000  Level Fort Worth Center
01:18AM 33.2361 -92.1883 221° Southwest 452 520 38,000  Level Fort Worth Center
01:19AM 33.1400 -92.2883 220° Southwest 462 532 38,000  Level Fort Worth Center
01:20AM 33.0417 -92.3856 220° Southwest 469 540 38,000  Level Fort Worth Center
01:21AM 32.9414 -92.4853 220° Southwest 469 540 38,000  Level Fort Worth Center
01:22AM 32.8450 -92.5819 220° Southwest 469 540 38,000  Level Fort Worth Center
01:23AM 32.7483 -92.6786 219° Southwest 469 540 38,000  Level Fort Worth Center
01:24AM 32.6497 -92.7750 221° Southwest 469 540 38,000  Level Fort Worth Center
01:25AM 32.5553 -92.8711 219° Southwest 464 534 38,000  Level Fort Worth Center
01:26AM 32.4564 -92.9672 223° Southwest 464 534 38,000  Level Fort Worth Center
01:27AM 32.3600 -93.0753 216° Southwest 470 541 38,000  Level Fort Worth Center
01:28AM 32.2586 -93.1636 220° Southwest 470 541 38,000  Level Fort Worth Center
01:29AM 32.1819 -93.2408 221° Southwest 465 535 38,000  Level Fort Worth Center
01:30AM 32.0628 -93.3639 220° Southwest 471 542 38,000  Level Fort Worth Center
01:31AM 31.9636 -93.4614 220° Southwest 471 542 38,000  Level Fort Worth Center
01:32AM 31.8622 -93.5611 220° Southwest 471 542 38,000 -480 Level Fort Worth Center
01:33AM 31.7628 -93.6581 220° Southwest 471 542 37,100 -1,500 Descending Fort Worth Center
01:34AM 31.6633 -93.7547 218° Southwest 466 536 35,100 -2,100 Descending Fort Worth Center
01:35AM 31.5639 -93.8464 214° Southwest 466 536 33,000 -2,100 Descending Fort Worth Center
01:36AM 31.4556 -93.9333 211° Southwest 466 536 30,900 -2,160 Descending Fort Worth Center
01:37AM 31.3408 -94.0156 212° Southwest 477 549 28,700 -2,280 Descending Fort Worth Center
01:38AM 31.2261 -94.1000 211° Southwest 483 556 26,400 -2,100 Descending Fort Worth Center
01:39AM 31.1258 -94.1714 212° Southwest 483 556 24,600 -2,100 Descending Fort Worth Center
01:40AM 31.0192 -94.2503 212° Southwest 483 556 22,300 -2,220 Descending Fort Worth Center
01:42AM 30.7533 -94.4419 213° Southwest 439 505 16,900 -2,160 Descending Houston Center
01:43AM 30.6583 -94.5131 211° Southwest 427 491 15,100 -2,040 Descending Houston Center
01:44AM 30.5578 -94.5819 212° Southwest 419 482 13,100 -1,800 Descending Houston Center
01:45AM 30.4636 -94.6497 212° Southwest 397 457 11,500 -1,380 Descending Houston Center
01:46AM 30.3811 -94.7089 212° Southwest 339 390 10,400 -1,140 Descending Houston Center
01:48AM 30.2639 -94.7944 211° Southwest 310 357 8,500 -1,320 Descending Houston Center
01:49AM 30.1950 -94.8428 209° Southwest 294 338 7,000 -1,440 Descending Houston Center
01:50AM 30.1508 -94.8711 213° Southwest 288 331 6,300 -1,440 Descending Houston Center
01:51AM 30.0842 -94.9206 212° Southwest 286 329 4,800 -1,200 Descending Houston Center
01:52AM 30.0192 -94.9675 224° Southwest 277 319 4,000 -420 Descending Houston Center
01:52AM 29.9772 -95.0136 273° West 228 262 4,000 -120 Level Houston Center
01:53AM 29.9789 -95.0458 269° West 236 272 3,900 -600 Descending Houston Center
01:54AM 29.9772 -95.1189 271° West 232 267 3,100 -1,020 Descending Houston Center
01:55AM 29.9778 -95.1881 271° West 223 257 1,900 -1,080 Descending Houston Center
01:56AM 29.9783 -95.2406 271° West 180 207 1,000 -900 Descending Houston Center